Rancho Penasquitos (500, 13811) Station Data

Red Flag Warning: No
Fire Weather Zone: 250
SDGE Region: North East
Lat/Lon: 32.972/-117.117

Observations

Time Wind Speed/Gust Temp(F) RH Fuel Moist Fuel Temp(F) Dewpt(F) Tmax(F) Tmin(F) Accum Precip 10-min Precip SL Press(mb)
4/30 12:00am 34 4 G 6 68° 16% - - 21° 80.8° 61.3° - - -
4/29 11:50pm 35 4 G 6 68° 16% - - 20° 80.8° 61.3° - - -
4/29 11:40pm 48 5 G 6 67° 17% - - 21° 80.8° 61.3° - - -
4/29 11:30pm 19 3 G 6 67° 19% - - 23° 80.8° 61.3° - - -
4/29 11:20pm 12 3 G 5 66° 21% - - 25° 80.8° 61.3° - - -
4/29 11:10pm 22 3 G 5 65° 22% - - 25° 80.8° 61.3° - - -
4/29 11:00pm 36 4 G 8 66° 22% - - 26° 80.8° 61.3° - - -
4/29 10:50pm 68 3 G 8 66° 22% - - 25° 80.8° 61.3° - - -
4/29 10:40pm 23 5 G 7 64° 23% - - 26° 80.8° 61.3° - - -
4/29 10:30pm 30 5 G 6 65° 23% - - 26° 80.8° 61.3° - - -
4/29 10:20pm 30 4 G 6 65° 24% - - 27° 80.8° 61.3° - - -
4/29 10:10pm 39 4 G 6 65° 24% - - 27° 80.8° 61.3° - - -
4/29 10:00pm 8 4 G 6 66° 24% - - 28° 80.8° 61.3° - - -
4/29 9:50pm 344 3 G 6 66° 24% - - 28° 80.8° 61.3° - - -
4/29 9:40pm 342 6 G 9 66° 25% - - 29° 80.8° 61.3° - - -
4/29 9:30pm 337 6 G 11 65° 27% - - 31° 80.8° 61.3° - - -
4/29 9:20pm 339 6 G 12 65° 27% - - 31° 80.8° 61.3° - - -
4/29 9:10pm 335 4 G 9 65° 28% - - 31° 80.8° 61.3° - - -
4/29 9:00pm 323 7 G 11 65° 28% - - 32° 80.8° 61.3° - - -
4/29 8:50pm 324 8 G 13 65° 28% - - 31° 80.8° 61.3° - - -
4/29 8:40pm 330 6 G 9 65° 28% - - 31° 80.8° 61.3° - - -
4/29 8:30pm 322 7 G 12 65° 29% - - 32° 80.8° 61.3° - - -
4/29 8:20pm 334 2 G 5 65° 30% - - 32° 80.8° 61.3° - - -
4/29 8:10pm 308 3 G 6 66° 29% - - 32° 80.8° 61.3° - - -
4/29 8:00pm 330 6 G 9 66° 29% - - 32° 80.8° 61.3° - - -
4/29 7:50pm 334 5 G 8 65° 31% - - 34° 80.8° 61.3° - - -
4/29 7:40pm 313 7 G 9 66° 31% - - 34° 80.8° 61.3° - - -
4/29 7:30pm 310 8 G 12 67° 31% - - 36° 80.8° 61.3° - - -
4/29 7:20pm 311 12 G 16 68° 31% - - 36° 80.8° 61.3° - - -
4/29 7:10pm 315 11 G 16 69° 31% - - 37° 80.8° 61.3° - - -
4/29 7:00pm 306 11 G 16 70° 27% - - 35° 80.8° 61.3° - - -
4/29 6:50pm 308 11 G 15 71° 24% - - 33° 80.8° 61.3° - - -
4/29 6:40pm 305 10 G 15 71° 25% - - 34° 80.8° 61.3° - - -
4/29 6:30pm 299 10 G 14 72° 26% - - 35° 80.8° 61.3° - - -
4/29 6:20pm 293 10 G 14 72° 23% - - 33° 80.8° 61.3° - - -
4/29 6:10pm 289 9 G 13 73° 23% - - 33° 80.8° 61.3° - - -
4/29 6:00pm 304 12 G 17 73° 21% - - 31° 80.8° 61.3° - - -
4/29 5:50pm 299 13 G 18 73° 19% - - 29° 80.8° 61.3° - - -
4/29 5:40pm 281 11 G 17 73° 19% - - 29° 80.8° 61.3° - - -
4/29 5:30pm 274 10 G 14 73° 18% - - 28° 80.8° 61.3° - - -
4/29 5:20pm 286 11 G 15 74° 18% - - 28° 80.8° 61.3° - - -
4/29 5:10pm 271 10 G 14 73° 19% - - 29° 80.8° 61.3° - - -
4/29 5:00pm 280 10 G 14 73° 18% - - 26° 80.8° 61.3° - - -
4/29 4:50pm 279 11 G 16 73° 16% - - 24° 80.8° 61.3° - - -
4/29 4:40pm 286 11 G 18 74° 17% - - 26° 80.8° 61.3° - - -
4/29 4:30pm 294 12 G 19 74° 16% - - 25° 80.8° 61.3° - - -
4/29 4:20pm 275 10 G 18 74° 15% - - 24° 80.8° 61.3° - - -
4/29 4:10pm 262 10 G 16 74° 14% - - 23° 80.8° 61.3° - - -
4/29 4:00pm 267 10 G 17 75° 14% - - 22° 80.8° 61.3° - - -
4/29 3:50pm 275 10 G 18 75° 14% - - 22° 80.8° 61.3° - - -
4/29 3:40pm 274 10 G 16 74° 14% - - 22° 80.8° 61.3° - - -
4/29 3:30pm 267 8 G 14 75° 14% - - 22° 80.8° 61.3° - - -
4/29 3:20pm 274 9 G 14 74° 15% - - 24° 80.8° 61.3° - - -
4/29 3:10pm 270 10 G 15 74° 16% - - 25° 80.8° 61.3° - - -
4/29 3:00pm 254 9 G 15 74° 17% - - 26° 80.8° 61.3° - - -
4/29 2:50pm 262 8 G 14 74° 16% - - 26° 80.8° 61.3° - - -
4/29 2:40pm 285 11 G 18 74° 16% - - 25° 80.8° 61.3° - - -
4/29 2:30pm 282 11 G 17 75° 16% - - 25° 80.8° 61.3° - - -
4/29 2:20pm 287 11 G 17 75° 16% - - 25° 80.8° 61.3° - - -
4/29 2:10pm 279 10 G 17 75° 16% - - 25° 80.8° 61.3° - - -
4/29 2:00pm 288 10 G 15 75° 17% - - 27° 80.8° 61.3° - - -
4/29 1:50pm 283 9 G 15 75° 19% - - 30° 80.8° 61.3° - - -
4/29 1:40pm 279 9 G 15 75° 20% - - 31° 80.8° 61.3° - - -
4/29 1:30pm 268 8 G 14 75° 20% - - 31° 80.8° 61.3° - - -
4/29 1:20pm 255 7 G 13 75° 18% - - 28° 80.8° 61.3° - - -
4/29 1:10pm 257 9 G 14 75° 14% - - 22° 80.8° 61.3° - - -
4/29 1:00pm 245 8 G 14 76° 13% - - 21° 80.8° 61.3° - - -
4/29 12:50pm 240 8 G 15 76° 13% - - 22° 80.8° 61.3° - - -
4/29 12:40pm 238 7 G 13 76° 13% - - 22° 80.8° 61.3° - - -
4/29 12:30pm 224 9 G 15 76° 13% - - 22° 80.8° 61.3° - - -
4/29 12:20pm 249 7 G 14 76° 14% - - 24° 80.8° 61.3° - - -
4/29 12:10pm 242 7 G 12 75° 15% - - 24° 80.8° 61.3° - - -
4/29 12:00pm 222 8 G 13 75° 15% - - 25° 80.8° 61.3° - - -
4/29 11:50am 258 6 G 15 79° 10% - - 16° 80.8° 61.3° - - -
4/29 11:40am 14 5 G 11 80° 8% - - 14° 80.8° 61.3° - - -
4/29 11:30am 330 3 G 7 79° 8% - - 14° 80.2° 61.3° - - -
4/29 11:20am 330 4 G 11 78° 9% - - 15° 80.2° 61.3° - - -
4/29 11:10am 34 3 G 9 79° 9% - - 16° 79.9° 61.3° - - -
4/29 11:00am 50 5 G 15 78° 9% - - 16° 79.1° 61.3° - - -
4/29 10:50am 7 3 G 9 77° 9% - - 15° 78.9° 61.3° - - -
4/29 10:40am 353 5 G 11 77° 10% - - 15° 77.8° 61.3° - - -
4/29 10:30am 15 4 G 9 77° 10% - - 17° 77.8° 61.3° - - -
4/29 10:20am 42 4 G 9 77° 11% - - 17° 77.4° 61.3° - - -
4/29 10:10am 23 3 G 7 76° 11% - - 18° 76.6° 61.3° - - -
4/29 10:00am 16 4 G 10 74° 12% - - 18° 75.7° 61.3° - - -
4/29 9:50am 39 4 G 12 75° 12% - - 19° 75.7° 61.3° - - -
4/29 9:40am 43 4 G 11 74° 12% - - 19° 75.5° 61.3° - - -
4/29 9:30am 43 5 G 10 73° 11% - - 16° 74.1° 61.3° - - -
4/29 9:20am 39 7 G 13 72° 12% - - 16° 73.2° 61.3° - - -
4/29 9:10am 22 7 G 16 72° 13% - - 18° 72.4° 61.3° - - -
4/29 9:00am 17 5 G 11 71° 14% - - 19° 71.6° 61.3° - - -
4/29 8:50am 25 5 G 11 71° 14% - - 19° 71.3° 61.3° - - -
4/29 8:40am 34 5 G 10 70° 14% - - 19° 70.8° 61.3° - - -
4/29 8:30am 34 5 G 10 69° 15% - - 19° 69.9° 61.3° - - -
4/29 8:20am 24 5 G 10 68° 15% - - 19° 69° 61.3° - - -
4/29 8:10am 24 5 G 8 68° 15% - - 19° 68.5° 61.3° - - -
4/29 8:00am 21 4 G 7 67° 16% - - 20° 68.2° 61.3° - - -
4/29 7:50am 15 4 G 7 67° 16% - - 19° 68.2° 61.3° - - -
4/29 7:40am 34 4 G 9 67° 14% - - 16° 68.2° 61.3° - - -
4/29 7:30am 38 4 G 8 66° 15% - - 18° 68.2° 61.3° - - -
4/29 7:20am 37 4 G 6 65° 16% - - 18° 68.2° 61.3° - - -
4/29 7:10am 42 4 G 7 64° 17% - - 18° 68.2° 61.3° - - -
4/29 7:00am 32 4 G 6 63° 18% - - 19° 68.2° 61.3° - - -
4/29 6:50am 25 5 G 8 63° 17% - - 17° 68.2° 61.3° - - -
4/29 6:40am 37 5 G 7 64° 15% - - 16° 68.2° 61.3° - - -
4/29 6:30am 46 6 G 9 65° 14% - - 15° 68.2° 61.3° - - -
4/29 6:20am 50 5 G 9 65° 14% - - 15° 68.2° 61.3° - - -
4/29 6:10am 48 5 G 9 65° 14% - - 15° 68.2° 61.3° - - -
4/29 6:00am 39 6 G 9 64° 15% - - 15° 68.2° 61.3° - - -
4/29 5:50am 36 5 G 9 64° 15% - - 16° 68.2° 61.3° - - -
4/29 5:40am 37 6 G 10 65° 15% - - 15° 68.2° 61.3° - - -
4/29 5:30am 35 6 G 10 65° 15% - - 15° 68.2° 61.3° - - -
4/29 5:20am 37 6 G 11 65° 14% - - 15° 68.2° 61.3° - - -
4/29 5:10am 42 6 G 11 65° 14% - - 15° 68.2° 61.3° - - -
4/29 5:00am 43 6 G 11 65° 15% - - 16° 68.2° 61.3° - - -
4/29 4:50am 44 6 G 11 65° 15% - - 16° 68.2° 61.3° - - -
4/29 4:40am 40 6 G 12 65° 15% - - 17° 68.2° 61.3° - - -
4/29 4:30am 40 6 G 10 66° 15% - - 17° 68.2° 61.3° - - -
4/29 4:20am 40 6 G 12 66° 15% - - 17° 68.2° 61.3° - - -
4/29 4:10am 36 7 G 14 67° 15% - - 17° 68.2° 61.3° - - -
4/29 4:00am 33 8 G 14 67° 14% - - 17° 68.2° 61.3° - - -
4/29 3:50am 32 9 G 14 67° 15% - - 17° 68.2° 61.3° - - -
4/29 3:40am 35 7 G 13 67° 15% - - 18° 68.2° 61.3° - - -
4/29 3:30am 33 7 G 15 67° 15% - - 18° 68.2° 61.3° - - -
4/29 3:20am 31 7 G 13 67° 16% - - 19° 68.2° 61.3° - - -
4/29 3:10am 38 7 G 12 67° 16% - - 19° 68.2° 61.3° - - -
4/29 3:00am 29 7 G 16 67° 15% - - 19° 68.2° 61.3° - - -
4/29 2:50am 30 7 G 13 68° 15% - - 19° 68.2° 61.3° - - -
4/29 2:40am 45 8 G 13 68° 16% - - 20° 68.2° 61.3° - - -
4/29 2:30am 42 8 G 13 67° 17% - - 21° 67.9° 61.3° - - -
4/29 2:20am 28 6 G 12 66° 21% - - 24° 66.4° 61.3° - - -
4/29 2:10am 28 6 G 11 64° 26% - - 28° 65.8° 61.3° - - -
4/29 2:00am 19 5 G 9 63° 37% - - 36° 65.8° 61.3° - - -
4/29 1:50am 13 7 G 11 64° 36% - - 36° 65.8° 61.3° - - -
4/29 1:40am 30 4 G 8 62° 41% - - 39° 65.8° 61.3° - - -
4/29 1:30am 37 3 G 6 63° 38% - - 37° 65.8° 61.3° - - -
4/29 1:20am 53 3 G 5 65° 35% - - 36° 65.8° 61.3° - - -
4/29 1:10am 51 3 G 5 64° 42% - - 41° 65.5° 61.3° - - -
4/29 1:00am 59 4 G 7 63° 47% - - 43° 64.2° 61.3° - - -
4/29 12:50am 79 6 G 10 63° 49% - - 43° 64.2° 61.3° - - -
4/29 12:40am 70 7 G 9 62° 50% - - 43° 64.2° 61.3° - - -
4/29 12:30am 68 5 G 7 62° 52% - - 44° 64.2° 61.3° - - -
4/29 12:20am 91 5 G 7 63° 51% - - 45° 64.2° 62.1° - - -
4/29 12:10am 75 3 G 4 64° 50% - - 44° 64.2° 62.9° - - -
4/29 12:00am 36 3 G 4 63° 51% - - 45° 71.9° 55.2° - - -
4/28 11:50pm 23 3 G 3 63° 53% - - 46° 71.9° 55.2° - - -
4/28 11:40pm 34 2 G 3 63° 55% - - 46° 71.9° 55.2° - - -
4/28 11:30pm 56 4 G 5 63° 55% - - 46° 71.9° 55.2° - - -
4/28 11:20pm 64 4 G 6 63° 55% - - 47° 71.9° 55.2° - - -
4/28 11:10pm 73 5 G 7 62° 56% - - 46° 71.9° 55.2° - - -
4/28 11:00pm 69 5 G 6 62° 57% - - 47° 71.9° 55.2° - - -
4/28 10:50pm 40 3 G 5 62° 57% - - 46° 71.9° 55.2° - - -
4/28 10:40pm 13 3 G 5 62° 57% - - 46° 71.9° 55.2° - - -
4/28 10:30pm 20 3 G 5 62° 58% - - 47° 71.9° 55.2° - - -
4/28 10:20pm 19 4 G 5 61° 59% - - 47° 71.9° 55.2° - - -
4/28 10:10pm 355 3 G 5 61° 62% - - 47° 71.9° 55.2° - - -
4/28 10:00pm 2 5 G 7 61° 61% - - 47° 71.9° 55.2° - - -
4/28 9:50pm 353 4 G 7 61° 61% - - 47° 71.9° 55.2° - - -
4/28 9:40pm 5 5 G 7 61° 59% - - 47° 71.9° 55.2° - - -
4/28 9:30pm 342 3 G 8 62° 58% - - 47° 71.9° 55.2° - - -
4/28 9:20pm 353 7 G 10 61° 62% - - 48° 71.9° 55.2° - - -
4/28 9:10pm 17 5 G 7 61° 63% - - 48° 71.9° 55.2° - - -
4/28 9:00pm 7 3 G 6 61° 63% - - 48° 71.9° 55.2° - - -
4/28 8:50pm 347 6 G 9 62° 61% - - 48° 71.9° 55.2° - - -
4/28 8:40pm 358 5 G 8 61° 60% - - 47° 71.9° 55.2° - - -
4/28 8:30pm 358 4 G 7 62° 59% - - 48° 71.9° 55.2° - - -
4/28 8:20pm 313 6 G 9 62° 59% - - 48° 71.9° 55.2° - - -
4/28 8:10pm 321 7 G 10 62° 58% - - 48° 71.9° 55.2° - - -
4/28 8:00pm 316 8 G 12 63° 57% - - 47° 71.9° 55.2° - - -
4/28 7:50pm 322 6 G 9 63° 56% - - 47° 71.9° 55.2° - - -
4/28 7:40pm 318 7 G 10 63° 54% - - 47° 71.9° 55.2° - - -
4/28 7:30pm 317 8 G 12 64° 53% - - 46° 71.9° 55.2° - - -
4/28 7:20pm 312 9 G 13 64° 53% - - 47° 71.9° 55.2° - - -
4/28 7:10pm 323 9 G 13 64° 53% - - 47° 71.9° 55.2° - - -
4/28 7:00pm 323 10 G 15 65° 51% - - 46° 71.9° 55.2° - - -
4/28 6:50pm 311 10 G 14 65° 50% - - 46° 71.9° 55.2° - - -
4/28 6:40pm 304 12 G 16 66° 48% - - 45° 71.9° 55.2° - - -
4/28 6:30pm 309 13 G 18 66° 48% - - 45° 71.9° 55.2° - - -
4/28 6:20pm 303 12 G 17 66° 49% - - 46° 71.9° 55.2° - - -
4/28 6:10pm 300 12 G 18 66° 49% - - 46° 71.9° 55.2° - - -
4/28 6:00pm 311 13 G 19 67° 46% - - 45° 71.9° 55.2° - - -